Terminal Aerodrome Forecast
Issued by NWS Jacksonville, FL

Home | Current Version | Previous Version | Text Only | Print | Product List | Glossary On
Versions: 1 2 3 4 5 6 7 8 9 10 11 12 13 14 15 16 17 18 19 20 21 22 23 24 25 26 27 28 29
000
FTUS42 KJAX 222100 AAF
TAFSSI
TAF AMD
KSSI 222157Z 2222/2318 05008KT 4SM -RA BR BKN005 OVC080
      TEMPO 2222/2301 BKN004
     FM230200 12004KT 1SM BR VCSH OVC003
     FM230900 19005KT 1/2SM FG OVC002
     FM231600 20008KT 5SM BR SCT002 OVC010=

USA.gov is the U.S. government's official web portal to all federal, state and local government web resources and services.